Mammoth Cave National Park, KY

5:38 AM CDT on October 31, 2014 (GMT -0500)
Ridgeview Drive | Change Station
CLOSE
Current Station
Personal Weather Station
Location: Bowling Green, KY
Elevation: 650 ft
Nearby Weather Stations
Active Advisory: Freeze Watch, Special Statement

Elev 650 ft 36.99 °N, 86.52 °W | Updated 1 second ago

Overcast
Overcast
47.1 °F
Feels Like 47 °F
N
0.0
Wind Variable Wind from North
Gusts 0.0 mph

Today
High -- | Low -- °F
--% Chance of Precip.
Yesterday
High -- | Low -- °F
Precip. -- in
7:08 AM 5:49 PM
First Quarter, 54% visible
Pressure 30.00 in
Visibility 10.0 miles
Clouds Mostly Cloudy 4800 ft
Overcast 6000 ft
Windchill 47 °F
Dew Point 44 °F
Humidity 90%
Rainfall 0.00 in
Snow Depth Not available.
UV 0 out of 12
Pollen .40 out of 12
Air Quality Not available.
Flu Activity Not available.
METAR KBWG 310953Z AUTO 00000KT 10SM BKN048 OVC060 09/06 A3000 RMK AO2 SLP157 T00890061

More Conditions Fewer Conditions

Pressure 30.00 in
Visibility 10.0 miles
Clouds Mostly Cloudy 4800 ft
Overcast 6000 ft
Windchill 47 °F
Dew Point 44 °F
Humidity 90%
Rainfall 0.00 in
Snow Depth Not available.
UV 0 out of 12
Pollen .40 out of 12
Air Quality Not available.
Flu Activity Not available.
METAR KBWG 310953Z AUTO 00000KT 10SM BKN048 OVC060 09/06 A3000 RMK AO2 SLP157 T00890061

More Conditions Fewer Conditions

10-Day Weather Forecast

Almanac

Astronomy

Oct. 31, 2014 Rise Set
Actual Time
Civil Twilight
Nautical Twilight
Astronomical Twilight
Moon
Length of Visible Light
Length of Day
Tomorrow will be .
, % of the Moon is Illuminated

Today's Extremes

State Highs State Lows

Community

WunderPhotos

Upload Photos

1,766,580 photos uploaded!

WunderBlogs® & News

Nearby

Air Quality

  Air Quality AQ Index Pollutant
Not available.

Snow Depth

Station Depth Elevation

Earthquake Activity

City Distance Mag. Time & Date
Minimum magnitude displayed is 2.5.

Coastal Water Temperatures

Place Temperature

Nearby Weather Stations